sensor_id;sensor_type;location;lat;lon;timestamp;temperature;humidity
26270;DHT22;15937;50.612;6.656;2023-04-16T00:02:05;6.50;99.90
26270;DHT22;15937;50.612;6.656;2023-04-16T00:06:10;6.50;99.90
26270;DHT22;15937;50.612;6.656;2023-04-16T00:10:13;6.50;99.90
26270;DHT22;15937;50.612;6.656;2023-04-16T00:14:15;6.50;99.90
26270;DHT22;15937;50.612;6.656;2023-04-16T00:18:16;6.50;99.90
26270;DHT22;15937;50.612;6.656;2023-04-16T00:22:18;6.40;99.90
26270;DHT22;15937;50.612;6.656;2023-04-16T00:26:20;6.50;99.90
26270;DHT22;15937;50.612;6.656;2023-04-16T00:30:22;6.50;99.90
26270;DHT22;15937;50.612;6.656;2023-04-16T00:34:24;6.50;99.90
26270;DHT22;15937;50.612;6.656;2023-04-16T00:38:26;6.50;99.90
26270;DHT22;15937;50.612;6.656;2023-04-16T00:42:31;6.40;99.90
26270;DHT22;15937;50.612;6.656;2023-04-16T00:46:32;6.40;99.90
26270;DHT22;15937;50.612;6.656;2023-04-16T00:50:35;6.40;99.90
26270;DHT22;15937;50.612;6.656;2023-04-16T00:54:38;6.30;99.90
26270;DHT22;15937;50.612;6.656;2023-04-16T00:58:40;6.40;99.90
26270;DHT22;15937;50.612;6.656;2023-04-16T01:02:42;6.50;99.90
26270;DHT22;15937;50.612;6.656;2023-04-16T01:06:44;6.50;99.90
26270;DHT22;15937;50.612;6.656;2023-04-16T01:10:45;6.40;99.90
26270;DHT22;15937;50.612;6.656;2023-04-16T01:14:47;6.50;99.90
26270;DHT22;15937;50.612;6.656;2023-04-16T01:18:49;6.50;99.90
26270;DHT22;15937;50.612;6.656;2023-04-16T01:22:51;6.50;99.90
26270;DHT22;15937;50.612;6.656;2023-04-16T01:26:53;6.50;99.90
26270;DHT22;15937;50.612;6.656;2023-04-16T01:30:55;6.50;99.90
26270;DHT22;15937;50.612;6.656;2023-04-16T01:34:57;6.50;99.90
26270;DHT22;15937;50.612;6.656;2023-04-16T01:38:58;6.50;99.90
26270;DHT22;15937;50.612;6.656;2023-04-16T01:43:00;6.40;99.90
26270;DHT22;15937;50.612;6.656;2023-04-16T01:47:02;6.40;99.90
26270;DHT22;15937;50.612;6.656;2023-04-16T01:51:04;6.50;99.90
26270;DHT22;15937;50.612;6.656;2023-04-16T01:55:06;6.50;99.90
26270;DHT22;15937;50.612;6.656;2023-04-16T01:59:09;6.50;99.90
26270;DHT22;15937;50.612;6.656;2023-04-16T02:03:11;6.40;99.90
26270;DHT22;15937;50.612;6.656;2023-04-16T02:07:13;6.50;99.90
26270;DHT22;15937;50.612;6.656;2023-04-16T02:11:18;6.50;99.90
26270;DHT22;15937;50.612;6.656;2023-04-16T02:15:19;6.50;99.90
26270;DHT22;15937;50.612;6.656;2023-04-16T02:19:21;6.40;99.90
26270;DHT22;15937;50.612;6.656;2023-04-16T02:23:23;6.40;99.90
26270;DHT22;15937;50.612;6.656;2023-04-16T02:27:25;6.50;99.90
26270;DHT22;15937;50.612;6.656;2023-04-16T02:31:27;6.40;99.90
26270;DHT22;15937;50.612;6.656;2023-04-16T02:35:29;6.50;99.90
26270;DHT22;15937;50.612;6.656;2023-04-16T02:39:31;6.40;99.90
26270;DHT22;15937;50.612;6.656;2023-04-16T02:43:33;6.40;99.90
26270;DHT22;15937;50.612;6.656;2023-04-16T02:47:34;6.50;99.90
26270;DHT22;15937;50.612;6.656;2023-04-16T02:51:36;6.50;99.90
26270;DHT22;15937;50.612;6.656;2023-04-16T02:55:38;6.50;99.90
26270;DHT22;15937;50.612;6.656;2023-04-16T02:59:40;6.50;99.90
26270;DHT22;15937;50.612;6.656;2023-04-16T03:03:41;6.50;99.90
26270;DHT22;15937;50.612;6.656;2023-04-16T03:07:43;6.40;99.90
26270;DHT22;15937;50.612;6.656;2023-04-16T03:11:45;6.40;99.90
26270;DHT22;15937;50.612;6.656;2023-04-16T03:15:48;6.50;99.90
26270;DHT22;15937;50.612;6.656;2023-04-16T03:19:50;6.40;99.90
26270;DHT22;15937;50.612;6.656;2023-04-16T03:23:52;6.40;99.90
26270;DHT22;15937;50.612;6.656;2023-04-16T03:27:54;6.50;99.90
26270;DHT22;15937;50.612;6.656;2023-04-16T03:32:14;6.50;99.90
26270;DHT22;15937;50.612;6.656;2023-04-16T03:36:29;6.50;99.90
26270;DHT22;15937;50.612;6.656;2023-04-16T03:40:31;6.40;99.90
26270;DHT22;15937;50.612;6.656;2023-04-16T03:44:33;6.50;99.90
26270;DHT22;15937;50.612;6.656;2023-04-16T03:48:35;6.40;99.90
26270;DHT22;15937;50.612;6.656;2023-04-16T03:52:38;6.50;99.90
26270;DHT22;15937;50.612;6.656;2023-04-16T03:56:40;6.50;99.90
26270;DHT22;15937;50.612;6.656;2023-04-16T04:00:46;6.50;99.90
26270;DHT22;15937;50.612;6.656;2023-04-16T04:04:55;6.40;99.90
26270;DHT22;15937;50.612;6.656;2023-04-16T04:08:59;6.50;99.90
26270;DHT22;15937;50.612;6.656;2023-04-16T04:13:02;6.40;99.90
26270;DHT22;15937;50.612;6.656;2023-04-16T04:17:05;6.50;99.90
26270;DHT22;15937;50.612;6.656;2023-04-16T04:21:07;6.50;99.90
26270;DHT22;15937;50.612;6.656;2023-04-16T04:25:10;6.50;99.90
26270;DHT22;15937;50.612;6.656;2023-04-16T04:29:12;6.50;99.90
26270;DHT22;15937;50.612;6.656;2023-04-16T04:33:14;6.40;99.90
26270;DHT22;15937;50.612;6.656;2023-04-16T04:37:16;6.40;99.90
26270;DHT22;15937;50.612;6.656;2023-04-16T04:41:17;6.40;99.90
26270;DHT22;15937;50.612;6.656;2023-04-16T04:45:19;6.50;99.90
26270;DHT22;15937;50.612;6.656;2023-04-16T04:49:21;6.50;99.90
26270;DHT22;15937;50.612;6.656;2023-04-16T04:53:23;6.50;99.90
26270;DHT22;15937;50.612;6.656;2023-04-16T04:57:25;6.50;99.90
26270;DHT22;15937;50.612;6.656;2023-04-16T05:01:27;6.40;99.90
26270;DHT22;15937;50.612;6.656;2023-04-16T05:05:29;6.50;99.90
26270;DHT22;15937;50.612;6.656;2023-04-16T05:09:31;6.50;99.90
26270;DHT22;15937;50.612;6.656;2023-04-16T05:13:32;6.40;99.90
26270;DHT22;15937;50.612;6.656;2023-04-16T05:17:37;6.60;99.90
26270;DHT22;15937;50.612;6.656;2023-04-16T05:21:39;6.50;99.90
26270;DHT22;15937;50.612;6.656;2023-04-16T05:25:41;6.50;99.90
26270;DHT22;15937;50.612;6.656;2023-04-16T05:29:42;6.50;99.90
26270;DHT22;15937;50.612;6.656;2023-04-16T05:33:44;6.60;99.90
26270;DHT22;15937;50.612;6.656;2023-04-16T05:37:46;6.60;99.90
26270;DHT22;15937;50.612;6.656;2023-04-16T05:41:47;6.60;99.90
26270;DHT22;15937;50.612;6.656;2023-04-16T05:45:49;6.70;99.90
26270;DHT22;15937;50.612;6.656;2023-04-16T05:49:51;6.60;99.90
26270;DHT22;15937;50.612;6.656;2023-04-16T05:53:53;6.60;99.90
26270;DHT22;15937;50.612;6.656;2023-04-16T05:57:55;6.60;99.90
26270;DHT22;15937;50.612;6.656;2023-04-16T06:01:57;6.80;99.90
26270;DHT22;15937;50.612;6.656;2023-04-16T06:05:58;6.70;99.90
26270;DHT22;15937;50.612;6.656;2023-04-16T06:10:00;6.70;99.90
26270;DHT22;15937;50.612;6.656;2023-04-16T06:14:02;6.70;99.90
26270;DHT22;15937;50.612;6.656;2023-04-16T06:18:04;6.90;99.90
26270;DHT22;15937;50.612;6.656;2023-04-16T06:22:06;6.70;99.90
26270;DHT22;15937;50.612;6.656;2023-04-16T06:26:08;6.90;99.90
26270;DHT22;15937;50.612;6.656;2023-04-16T06:30:11;6.80;99.90
26270;DHT22;15937;50.612;6.656;2023-04-16T06:34:13;6.80;99.90
26270;DHT22;15937;50.612;6.656;2023-04-16T06:38:15;6.80;99.90
26270;DHT22;15937;50.612;6.656;2023-04-16T06:42:17;6.90;99.90
26270;DHT22;15937;50.612;6.656;2023-04-16T06:46:19;6.90;99.90
26270;DHT22;15937;50.612;6.656;2023-04-16T06:50:21;6.90;99.90
26270;DHT22;15937;50.612;6.656;2023-04-16T06:54:23;6.90;99.90
26270;DHT22;15937;50.612;6.656;2023-04-16T06:58:25;6.90;99.90
26270;DHT22;15937;50.612;6.656;2023-04-16T07:02:28;6.90;99.90
26270;DHT22;15937;50.612;6.656;2023-04-16T07:06:30;7.00;99.90
26270;DHT22;15937;50.612;6.656;2023-04-16T07:10:33;6.90;99.90
26270;DHT22;15937;50.612;6.656;2023-04-16T07:14:36;7.00;99.90
26270;DHT22;15937;50.612;6.656;2023-04-16T07:18:37;7.00;99.90
26270;DHT22;15937;50.612;6.656;2023-04-16T07:22:39;7.00;99.90
26270;DHT22;15937;50.612;6.656;2023-04-16T07:26:41;7.00;99.90
26270;DHT22;15937;50.612;6.656;2023-04-16T07:30:43;7.00;99.90
26270;DHT22;15937;50.612;6.656;2023-04-16T07:34:45;7.20;99.90
26270;DHT22;15937;50.612;6.656;2023-04-16T07:38:47;7.00;99.90
26270;DHT22;15937;50.612;6.656;2023-04-16T07:42:49;7.00;99.90
26270;DHT22;15937;50.612;6.656;2023-04-16T07:46:51;7.10;99.90
26270;DHT22;15937;50.612;6.656;2023-04-16T07:50:53;7.30;99.90
26270;DHT22;15937;50.612;6.656;2023-04-16T07:54:55;7.10;99.90
26270;DHT22;15937;50.612;6.656;2023-04-16T07:58:56;7.20;99.90
26270;DHT22;15937;50.612;6.656;2023-04-16T08:03:08;7.10;99.90
26270;DHT22;15937;50.612;6.656;2023-04-16T08:07:10;7.30;99.90
26270;DHT22;15937;50.612;6.656;2023-04-16T08:11:12;7.10;99.90
26270;DHT22;15937;50.612;6.656;2023-04-16T08:15:14;7.40;99.90
26270;DHT22;15937;50.612;6.656;2023-04-16T08:19:15;7.30;99.90
26270;DHT22;15937;50.612;6.656;2023-04-16T08:23:17;7.20;99.90
26270;DHT22;15937;50.612;6.656;2023-04-16T08:27:19;7.40;99.90
26270;DHT22;15937;50.612;6.656;2023-04-16T08:31:21;7.40;99.90
26270;DHT22;15937;50.612;6.656;2023-04-16T08:35:23;7.30;99.90
26270;DHT22;15937;50.612;6.656;2023-04-16T08:39:25;7.30;99.90
26270;DHT22;15937;50.612;6.656;2023-04-16T08:43:27;7.30;99.90
26270;DHT22;15937;50.612;6.656;2023-04-16T08:47:34;7.50;99.90
26270;DHT22;15937;50.612;6.656;2023-04-16T08:51:40;7.60;99.90
26270;DHT22;15937;50.612;6.656;2023-04-16T08:55:48;7.60;99.90
26270;DHT22;15937;50.612;6.656;2023-04-16T08:59:50;7.60;99.90
26270;DHT22;15937;50.612;6.656;2023-04-16T09:03:54;7.50;99.90
26270;DHT22;15937;50.612;6.656;2023-04-16T09:07:56;7.50;99.90
26270;DHT22;15937;50.612;6.656;2023-04-16T09:11:58;7.40;99.90
26270;DHT22;15937;50.612;6.656;2023-04-16T09:16:01;7.50;99.90
26270;DHT22;15937;50.612;6.656;2023-04-16T09:20:07;7.60;99.90
26270;DHT22;15937;50.612;6.656;2023-04-16T09:24:10;7.60;99.90
26270;DHT22;15937;50.612;6.656;2023-04-16T09:28:12;7.60;99.90
26270;DHT22;15937;50.612;6.656;2023-04-16T09:32:34;7.70;99.90
26270;DHT22;15937;50.612;6.656;2023-04-16T09:36:37;7.70;99.90
26270;DHT22;15937;50.612;6.656;2023-04-16T09:40:40;7.70;99.90
26270;DHT22;15937;50.612;6.656;2023-04-16T09:44:42;7.60;99.90
26270;DHT22;15937;50.612;6.656;2023-04-16T09:48:44;7.50;99.90
26270;DHT22;15937;50.612;6.656;2023-04-16T09:52:47;7.70;99.90
26270;DHT22;15937;50.612;6.656;2023-04-16T09:56:50;7.70;99.90
26270;DHT22;15937;50.612;6.656;2023-04-16T10:01:02;7.70;99.90
26270;DHT22;15937;50.612;6.656;2023-04-16T10:05:04;7.60;99.90
26270;DHT22;15937;50.612;6.656;2023-04-16T10:09:07;7.70;99.90
26270;DHT22;15937;50.612;6.656;2023-04-16T10:13:12;7.60;99.90
26270;DHT22;15937;50.612;6.656;2023-04-16T10:17:18;7.70;99.90
26270;DHT22;15937;50.612;6.656;2023-04-16T10:21:21;7.70;99.90
26270;DHT22;15937;50.612;6.656;2023-04-16T10:25:23;7.80;99.90
26270;DHT22;15937;50.612;6.656;2023-04-16T10:29:29;7.60;99.90
26270;DHT22;15937;50.612;6.656;2023-04-16T10:33:34;7.70;99.90
26270;DHT22;15937;50.612;6.656;2023-04-16T10:37:36;7.80;99.90
26270;DHT22;15937;50.612;6.656;2023-04-16T10:41:41;7.70;99.90
26270;DHT22;15937;50.612;6.656;2023-04-16T10:45:43;7.70;99.90
26270;DHT22;15937;50.612;6.656;2023-04-16T10:49:46;7.90;99.90
26270;DHT22;15937;50.612;6.656;2023-04-16T10:53:48;7.80;99.90
26270;DHT22;15937;50.612;6.656;2023-04-16T10:57:51;7.90;99.90
26270;DHT22;15937;50.612;6.656;2023-04-16T11:01:55;7.80;99.90
26270;DHT22;15937;50.612;6.656;2023-04-16T11:06:24;7.90;99.90
26270;DHT22;15937;50.612;6.656;2023-04-16T11:10:26;8.00;99.90
26270;DHT22;15937;50.612;6.656;2023-04-16T11:14:28;7.90;99.90
26270;DHT22;15937;50.612;6.656;2023-04-16T11:18:30;7.90;99.90
26270;DHT22;15937;50.612;6.656;2023-04-16T11:22:34;7.90;99.90
26270;DHT22;15937;50.612;6.656;2023-04-16T11:26:37;7.90;99.90
26270;DHT22;15937;50.612;6.656;2023-04-16T11:30:39;7.90;99.90
26270;DHT22;15937;50.612;6.656;2023-04-16T11:34:45;7.90;99.90
26270;DHT22;15937;50.612;6.656;2023-04-16T11:38:47;8.00;99.90
26270;DHT22;15937;50.612;6.656;2023-04-16T11:42:49;8.20;99.90
26270;DHT22;15937;50.612;6.656;2023-04-16T11:46:51;8.10;99.90
26270;DHT22;15937;50.612;6.656;2023-04-16T11:50:57;8.20;99.90
26270;DHT22;15937;50.612;6.656;2023-04-16T11:54:59;8.30;99.90
26270;DHT22;15937;50.612;6.656;2023-04-16T12:03:15;8.70;99.90
26270;DHT22;15937;50.612;6.656;2023-04-16T12:07:17;8.80;99.90
26270;DHT22;15937;50.612;6.656;2023-04-16T12:11:19;8.90;99.90
26270;DHT22;15937;50.612;6.656;2023-04-16T12:15:21;8.80;99.90
26270;DHT22;15937;50.612;6.656;2023-04-16T12:19:23;8.90;99.90
26270;DHT22;15937;50.612;6.656;2023-04-16T12:27:45;9.00;99.90
26270;DHT22;15937;50.612;6.656;2023-04-16T12:31:48;9.20;99.90
26270;DHT22;15937;50.612;6.656;2023-04-16T12:35:50;9.20;99.90
26270;DHT22;15937;50.612;6.656;2023-04-16T12:39:52;9.40;99.90
26270;DHT22;15937;50.612;6.656;2023-04-16T12:44:08;9.50;99.90
26270;DHT22;15937;50.612;6.656;2023-04-16T12:48:12;9.70;99.90
26270;DHT22;15937;50.612;6.656;2023-04-16T12:52:19;9.70;99.90
26270;DHT22;15937;50.612;6.656;2023-04-16T12:56:24;9.70;99.90
26270;DHT22;15937;50.612;6.656;2023-04-16T13:00:25;9.70;99.90
26270;DHT22;15937;50.612;6.656;2023-04-16T13:04:27;9.60;99.90
26270;DHT22;15937;50.612;6.656;2023-04-16T13:08:30;9.70;99.90
26270;DHT22;15937;50.612;6.656;2023-04-16T13:12:32;9.60;99.90
26270;DHT22;15937;50.612;6.656;2023-04-16T13:16:33;9.60;99.90
26270;DHT22;15937;50.612;6.656;2023-04-16T13:20:35;9.60;99.90
26270;DHT22;15937;50.612;6.656;2023-04-16T13:24:37;9.70;99.90
26270;DHT22;15937;50.612;6.656;2023-04-16T13:28:39;9.90;99.90
26270;DHT22;15937;50.612;6.656;2023-04-16T13:32:41;9.90;99.90
26270;DHT22;15937;50.612;6.656;2023-04-16T13:36:42;10.00;99.90
26270;DHT22;15937;50.612;6.656;2023-04-16T13:40:47;10.00;99.90
26270;DHT22;15937;50.612;6.656;2023-04-16T13:44:49;10.00;99.90
26270;DHT22;15937;50.612;6.656;2023-04-16T13:48:54;10.10;99.90
26270;DHT22;15937;50.612;6.656;2023-04-16T13:52:56;10.10;99.90
26270;DHT22;15937;50.612;6.656;2023-04-16T13:56:58;10.20;99.90
26270;DHT22;15937;50.612;6.656;2023-04-16T14:01:00;10.30;99.90
26270;DHT22;15937;50.612;6.656;2023-04-16T14:05:02;10.50;99.90
26270;DHT22;15937;50.612;6.656;2023-04-16T14:09:03;10.50;99.90
26270;DHT22;15937;50.612;6.656;2023-04-16T14:13:05;10.40;99.90
26270;DHT22;15937;50.612;6.656;2023-04-16T14:17:07;10.50;99.90
26270;DHT22;15937;50.612;6.656;2023-04-16T14:21:09;10.50;99.90
26270;DHT22;15937;50.612;6.656;2023-04-16T14:25:13;10.50;99.90
26270;DHT22;15937;50.612;6.656;2023-04-16T14:29:15;10.60;99.90
26270;DHT22;15937;50.612;6.656;2023-04-16T14:33:17;10.60;99.90
26270;DHT22;15937;50.612;6.656;2023-04-16T14:37:18;10.60;99.90
26270;DHT22;15937;50.612;6.656;2023-04-16T14:41:20;10.60;99.90
26270;DHT22;15937;50.612;6.656;2023-04-16T14:45:23;10.80;99.90
26270;DHT22;15937;50.612;6.656;2023-04-16T14:49:26;10.90;99.90
26270;DHT22;15937;50.612;6.656;2023-04-16T14:53:28;11.00;99.90
26270;DHT22;15937;50.612;6.656;2023-04-16T14:57:30;11.00;99.90
26270;DHT22;15937;50.612;6.656;2023-04-16T15:01:32;11.10;99.90
26270;DHT22;15937;50.612;6.656;2023-04-16T15:05:35;11.10;99.90
26270;DHT22;15937;50.612;6.656;2023-04-16T15:09:37;10.90;99.90
26270;DHT22;15937;50.612;6.656;2023-04-16T15:13:38;11.00;99.90
26270;DHT22;15937;50.612;6.656;2023-04-16T15:17:42;10.90;99.90
26270;DHT22;15937;50.612;6.656;2023-04-16T15:21:44;11.10;99.90
26270;DHT22;15937;50.612;6.656;2023-04-16T15:25:49;11.00;99.90
26270;DHT22;15937;50.612;6.656;2023-04-16T15:29:52;10.90;99.90
26270;DHT22;15937;50.612;6.656;2023-04-16T15:33:54;10.80;99.90
26270;DHT22;15937;50.612;6.656;2023-04-16T15:37:56;10.80;99.90
26270;DHT22;15937;50.612;6.656;2023-04-16T15:41:58;10.70;99.90
26270;DHT22;15937;50.612;6.656;2023-04-16T15:46:06;10.50;99.90
26270;DHT22;15937;50.612;6.656;2023-04-16T15:50:09;10.50;99.90
26270;DHT22;15937;50.612;6.656;2023-04-16T15:54:14;10.40;99.90
26270;DHT22;15937;50.612;6.656;2023-04-16T15:58:16;10.60;99.90
26270;DHT22;15937;50.612;6.656;2023-04-16T16:02:18;10.60;99.90
26270;DHT22;15937;50.612;6.656;2023-04-16T16:06:20;10.50;99.90
26270;DHT22;15937;50.612;6.656;2023-04-16T16:10:21;10.60;99.90
26270;DHT22;15937;50.612;6.656;2023-04-16T16:14:23;10.50;99.90
26270;DHT22;15937;50.612;6.656;2023-04-16T16:18:25;10.40;99.90
26270;DHT22;15937;50.612;6.656;2023-04-16T16:22:27;10.40;99.90
26270;DHT22;15937;50.612;6.656;2023-04-16T16:26:29;10.40;99.90
26270;DHT22;15937;50.612;6.656;2023-04-16T16:30:31;10.30;99.90
26270;DHT22;15937;50.612;6.656;2023-04-16T16:34:32;10.30;99.90
26270;DHT22;15937;50.612;6.656;2023-04-16T16:38:34;10.30;99.90
26270;DHT22;15937;50.612;6.656;2023-04-16T16:42:36;10.30;99.90
26270;DHT22;15937;50.612;6.656;2023-04-16T16:46:38;10.20;99.90
26270;DHT22;15937;50.612;6.656;2023-04-16T16:50:41;10.10;99.90
26270;DHT22;15937;50.612;6.656;2023-04-16T16:54:43;10.00;99.90
26270;DHT22;15937;50.612;6.656;2023-04-16T16:58:45;10.10;99.90
26270;DHT22;15937;50.612;6.656;2023-04-16T17:02:47;10.10;99.90
26270;DHT22;15937;50.612;6.656;2023-04-16T17:06:51;10.00;99.90
26270;DHT22;15937;50.612;6.656;2023-04-16T17:10:53;10.00;99.90
26270;DHT22;15937;50.612;6.656;2023-04-16T17:14:55;10.00;99.90
26270;DHT22;15937;50.612;6.656;2023-04-16T17:18:57;9.90;99.90
26270;DHT22;15937;50.612;6.656;2023-04-16T17:23:00;10.00;99.90
26270;DHT22;15937;50.612;6.656;2023-04-16T17:27:02;9.90;99.90
26270;DHT22;15937;50.612;6.656;2023-04-16T17:31:05;9.90;99.90
26270;DHT22;15937;50.612;6.656;2023-04-16T17:35:08;9.80;99.90
26270;DHT22;15937;50.612;6.656;2023-04-16T17:39:11;9.80;99.90
26270;DHT22;15937;50.612;6.656;2023-04-16T17:43:16;9.80;99.90
26270;DHT22;15937;50.612;6.656;2023-04-16T17:47:17;9.70;99.90
26270;DHT22;15937;50.612;6.656;2023-04-16T17:51:19;9.70;99.90
26270;DHT22;15937;50.612;6.656;2023-04-16T17:55:21;9.70;99.90
26270;DHT22;15937;50.612;6.656;2023-04-16T17:59:23;9.60;99.90
26270;DHT22;15937;50.612;6.656;2023-04-16T18:03:24;9.70;99.90
26270;DHT22;15937;50.612;6.656;2023-04-16T18:07:26;9.70;99.90
26270;DHT22;15937;50.612;6.656;2023-04-16T18:11:31;9.60;99.90
26270;DHT22;15937;50.612;6.656;2023-04-16T18:15:47;9.60;99.90
26270;DHT22;15937;50.612;6.656;2023-04-16T18:19:49;9.50;99.90
26270;DHT22;15937;50.612;6.656;2023-04-16T18:24:11;9.50;99.90
26270;DHT22;15937;50.612;6.656;2023-04-16T18:28:14;9.50;99.90
26270;DHT22;15937;50.612;6.656;2023-04-16T18:32:18;9.50;99.90
26270;DHT22;15937;50.612;6.656;2023-04-16T18:36:20;9.50;99.90
26270;DHT22;15937;50.612;6.656;2023-04-16T18:40:22;9.50;99.90
26270;DHT22;15937;50.612;6.656;2023-04-16T18:44:24;9.50;99.90
26270;DHT22;15937;50.612;6.656;2023-04-16T18:48:25;9.40;99.90
26270;DHT22;15937;50.612;6.656;2023-04-16T18:52:27;9.50;99.90
26270;DHT22;15937;50.612;6.656;2023-04-16T18:56:29;9.40;99.90
26270;DHT22;15937;50.612;6.656;2023-04-16T19:00:31;9.50;99.90
26270;DHT22;15937;50.612;6.656;2023-04-16T19:04:33;9.40;99.90
26270;DHT22;15937;50.612;6.656;2023-04-16T19:08:35;9.30;99.90
26270;DHT22;15937;50.612;6.656;2023-04-16T19:12:37;9.40;99.90
26270;DHT22;15937;50.612;6.656;2023-04-16T19:16:41;9.40;99.90
26270;DHT22;15937;50.612;6.656;2023-04-16T19:20:43;9.30;99.90
26270;DHT22;15937;50.612;6.656;2023-04-16T19:24:44;9.40;99.90
26270;DHT22;15937;50.612;6.656;2023-04-16T19:28:46;9.30;99.90
26270;DHT22;15937;50.612;6.656;2023-04-16T19:32:48;9.30;99.90
26270;DHT22;15937;50.612;6.656;2023-04-16T19:36:50;9.30;99.90
26270;DHT22;15937;50.612;6.656;2023-04-16T19:40:51;9.20;99.90
26270;DHT22;15937;50.612;6.656;2023-04-16T19:44:53;9.30;99.90
26270;DHT22;15937;50.612;6.656;2023-04-16T19:48:55;9.30;99.90
26270;DHT22;15937;50.612;6.656;2023-04-16T19:52:57;9.30;99.90
26270;DHT22;15937;50.612;6.656;2023-04-16T19:56:58;9.30;99.90
26270;DHT22;15937;50.612;6.656;2023-04-16T20:01:07;9.30;99.90
26270;DHT22;15937;50.612;6.656;2023-04-16T20:05:09;9.30;99.90
26270;DHT22;15937;50.612;6.656;2023-04-16T20:09:11;9.20;99.90
26270;DHT22;15937;50.612;6.656;2023-04-16T20:13:13;9.20;99.90
26270;DHT22;15937;50.612;6.656;2023-04-16T20:17:18;9.20;99.90
26270;DHT22;15937;50.612;6.656;2023-04-16T20:21:21;9.30;99.90
26270;DHT22;15937;50.612;6.656;2023-04-16T20:25:23;9.20;99.90
26270;DHT22;15937;50.612;6.656;2023-04-16T20:29:26;9.20;99.90
26270;DHT22;15937;50.612;6.656;2023-04-16T20:33:28;9.20;99.90
26270;DHT22;15937;50.612;6.656;2023-04-16T20:37:30;9.20;99.90
26270;DHT22;15937;50.612;6.656;2023-04-16T20:41:33;9.20;99.90
26270;DHT22;15937;50.612;6.656;2023-04-16T20:45:35;9.10;99.90
26270;DHT22;15937;50.612;6.656;2023-04-16T20:49:44;9.10;99.90
26270;DHT22;15937;50.612;6.656;2023-04-16T20:53:49;9.10;99.90
26270;DHT22;15937;50.612;6.656;2023-04-16T20:57:54;9.10;99.90
26270;DHT22;15937;50.612;6.656;2023-04-16T21:01:57;9.10;99.90
26270;DHT22;15937;50.612;6.656;2023-04-16T21:05:59;9.00;99.90
26270;DHT22;15937;50.612;6.656;2023-04-16T21:10:02;9.00;99.90
26270;DHT22;15937;50.612;6.656;2023-04-16T21:14:04;9.00;99.90
26270;DHT22;15937;50.612;6.656;2023-04-16T21:18:07;9.00;99.90
26270;DHT22;15937;50.612;6.656;2023-04-16T21:22:09;9.00;99.90
26270;DHT22;15937;50.612;6.656;2023-04-16T21:26:11;9.00;99.90
26270;DHT22;15937;50.612;6.656;2023-04-16T21:30:13;9.00;99.90
26270;DHT22;15937;50.612;6.656;2023-04-16T21:34:15;8.90;99.90
26270;DHT22;15937;50.612;6.656;2023-04-16T21:38:17;9.00;99.90
26270;DHT22;15937;50.612;6.656;2023-04-16T21:42:18;8.90;99.90
26270;DHT22;15937;50.612;6.656;2023-04-16T21:46:20;8.90;99.90
26270;DHT22;15937;50.612;6.656;2023-04-16T21:50:23;8.90;99.90
26270;DHT22;15937;50.612;6.656;2023-04-16T21:54:25;8.90;99.90
26270;DHT22;15937;50.612;6.656;2023-04-16T21:58:26;8.90;99.90
26270;DHT22;15937;50.612;6.656;2023-04-16T22:02:28;8.90;99.90
26270;DHT22;15937;50.612;6.656;2023-04-16T22:06:30;8.80;99.90
26270;DHT22;15937;50.612;6.656;2023-04-16T22:10:32;8.90;99.90
26270;DHT22;15937;50.612;6.656;2023-04-16T22:14:34;8.90;99.90
26270;DHT22;15937;50.612;6.656;2023-04-16T22:18:36;8.90;99.90
26270;DHT22;15937;50.612;6.656;2023-04-16T22:22:39;8.90;99.90
26270;DHT22;15937;50.612;6.656;2023-04-16T22:26:41;8.80;99.90
26270;DHT22;15937;50.612;6.656;2023-04-16T22:30:43;8.80;99.90
26270;DHT22;15937;50.612;6.656;2023-04-16T22:34:45;8.80;99.90
26270;DHT22;15937;50.612;6.656;2023-04-16T22:38:47;8.80;99.90
26270;DHT22;15937;50.612;6.656;2023-04-16T22:42:48;8.70;99.90
26270;DHT22;15937;50.612;6.656;2023-04-16T22:46:51;8.70;99.90
26270;DHT22;15937;50.612;6.656;2023-04-16T22:50:52;8.80;99.90
26270;DHT22;15937;50.612;6.656;2023-04-16T22:54:54;8.60;99.90
26270;DHT22;15937;50.612;6.656;2023-04-16T22:58:56;8.70;99.90
26270;DHT22;15937;50.612;6.656;2023-04-16T23:03:00;8.70;99.90
26270;DHT22;15937;50.612;6.656;2023-04-16T23:07:02;8.60;99.90
26270;DHT22;15937;50.612;6.656;2023-04-16T23:11:03;8.60;99.90
26270;DHT22;15937;50.612;6.656;2023-04-16T23:15:06;8.70;99.90
26270;DHT22;15937;50.612;6.656;2023-04-16T23:19:08;8.70;99.90
26270;DHT22;15937;50.612;6.656;2023-04-16T23:23:15;8.60;99.90
26270;DHT22;15937;50.612;6.656;2023-04-16T23:27:20;8.60;99.90
26270;DHT22;15937;50.612;6.656;2023-04-16T23:31:22;8.60;99.90
26270;DHT22;15937;50.612;6.656;2023-04-16T23:35:24;8.60;99.90
26270;DHT22;15937;50.612;6.656;2023-04-16T23:39:26;8.50;99.90
26270;DHT22;15937;50.612;6.656;2023-04-16T23:43:27;8.50;99.90
26270;DHT22;15937;50.612;6.656;2023-04-16T23:47:29;8.40;99.90
26270;DHT22;15937;50.612;6.656;2023-04-16T23:51:31;8.40;99.90
26270;DHT22;15937;50.612;6.656;2023-04-16T23:55:33;8.40;99.90
26270;DHT22;15937;50.612;6.656;2023-04-16T23:59:34;8.40;99.90
